createdAt,value
2022-08-28T00:04:10.512Z,18.00
2022-08-28T00:09:14.534Z,17.90
2022-08-28T00:14:17.897Z,17.80
2022-08-28T00:19:21.426Z,17.80
2022-08-28T00:24:25.309Z,17.80
2022-08-28T00:29:28.109Z,17.70
2022-08-28T00:34:33.290Z,17.70
2022-08-28T00:39:37.451Z,17.60
2022-08-28T00:44:40.658Z,17.60
2022-08-28T00:49:49.986Z,17.50
2022-08-28T00:54:59.303Z,17.50
2022-08-28T01:00:05.337Z,17.40
2022-08-28T01:05:09.680Z,17.30
2022-08-28T01:10:17.402Z,17.30
2022-08-28T01:15:37.201Z,17.20
2022-08-28T01:20:46.357Z,17.20
2022-08-28T01:25:50.636Z,17.10
2022-08-28T01:30:53.093Z,17.10
2022-08-28T01:35:55.982Z,17.00
2022-08-28T01:41:00.447Z,16.90
2022-08-28T01:46:06.265Z,16.90
2022-08-28T01:51:10.327Z,16.80
2022-08-28T01:56:17.422Z,16.80
2022-08-28T02:01:22.154Z,16.70
2022-08-28T02:06:25.604Z,16.60
2022-08-28T02:11:29.799Z,16.50
2022-08-28T02:16:32.170Z,16.50
2022-08-28T02:21:35.984Z,16.40
2022-08-28T02:26:39.863Z,16.40
2022-08-28T02:31:42.535Z,16.30
2022-08-28T02:36:45.195Z,16.30
2022-08-28T02:41:49.027Z,16.20
2022-08-28T02:46:51.388Z,16.20
2022-08-28T02:51:56.567Z,16.20
2022-08-28T02:57:00.366Z,16.30
2022-08-28T03:02:03.372Z,16.30
2022-08-28T03:07:06.754Z,16.30
2022-08-28T03:12:12.583Z,16.20
2022-08-28T03:17:15.185Z,16.20
2022-08-28T03:22:18.034Z,16.20
2022-08-28T03:27:21.788Z,16.20
2022-08-28T03:32:24.121Z,16.20
2022-08-28T03:37:31.808Z,16.20
2022-08-28T03:42:36.302Z,16.20
2022-08-28T03:47:40.952Z,16.10
2022-08-28T03:52:43.477Z,16.10
2022-08-28T03:57:47.477Z,16.00
2022-08-28T04:02:49.782Z,16.00
2022-08-28T04:07:52.180Z,15.90
2022-08-28T04:12:56.093Z,15.90
2022-08-28T04:17:58.504Z,15.80
2022-08-28T04:23:00.932Z,15.80
2022-08-28T04:28:04.927Z,15.80
2022-08-28T04:33:07.504Z,15.80
2022-08-28T04:38:09.904Z,15.80
2022-08-28T04:43:13.785Z,15.70
2022-08-28T04:48:16.326Z,15.70
2022-08-28T04:53:20.642Z,15.70
2022-08-28T04:58:25.072Z,15.70
2022-08-28T05:03:27.542Z,15.80
2022-08-28T05:08:30.163Z,15.90
2022-08-28T05:13:34.095Z,16.10
2022-08-28T05:18:36.696Z,16.60
2022-08-28T05:23:39.359Z,17.10
2022-08-28T05:28:43.419Z,17.80
2022-08-28T05:33:47.361Z,18.60
2022-08-28T05:38:51.065Z,19.40
2022-08-28T05:44:01.496Z,20.30
2022-08-28T05:49:09.139Z,21.10
2022-08-28T05:54:13.136Z,22.00
2022-08-28T05:59:17.409Z,22.90
2022-08-28T06:04:21.640Z,23.80
2022-08-28T06:09:29.345Z,24.60
2022-08-28T06:14:34.481Z,25.40
2022-08-28T06:19:41.226Z,26.10
2022-08-28T06:24:43.829Z,26.70
2022-08-28T06:29:47.868Z,27.30
2022-08-28T06:34:50.381Z,27.80
2022-08-28T06:39:52.882Z,28.30
2022-08-28T06:44:57.457Z,28.80
2022-08-28T06:49:59.942Z,29.20
2022-08-28T06:55:02.461Z,29.70
2022-08-28T07:00:09.952Z,30.20
2022-08-28T07:05:12.859Z,30.70
2022-08-28T07:10:15.930Z,30.70
2022-08-28T07:15:20.021Z,30.80
2022-08-28T07:20:23.451Z,30.70
2022-08-28T07:25:26.309Z,30.40
2022-08-28T07:30:30.489Z,30.20
2022-08-28T07:35:32.898Z,30.30
2022-08-28T07:40:35.384Z,30.50
2022-08-28T07:45:39.566Z,31.10
2022-08-28T07:50:42.001Z,31.50
2022-08-28T07:55:45.113Z,31.60
2022-08-28T08:00:49.135Z,31.30
2022-08-28T08:05:53.621Z,31.40
2022-08-28T08:11:01.570Z,31.70
2022-08-28T08:16:08.507Z,31.60
2022-08-28T08:21:13.478Z,31.10
2022-08-28T08:26:18.482Z,30.30
2022-08-28T08:31:24.059Z,29.60
2022-08-28T08:36:28.409Z,29.60
2022-08-28T08:41:33.316Z,30.20
2022-08-28T08:46:46.264Z,30.70
2022-08-28T08:51:55.764Z,30.80
2022-08-28T08:57:00.157Z,30.40
2022-08-28T09:02:11.402Z,30.20
2022-08-28T09:07:18.584Z,30.20
2022-08-28T09:12:23.645Z,30.40
2022-08-28T09:17:34.911Z,30.20
2022-08-28T09:22:38.036Z,29.70
2022-08-28T09:27:46.748Z,29.40
2022-08-28T09:32:59.048Z,29.70
2022-08-28T09:38:18.788Z,29.90
2022-08-28T09:43:24.693Z,29.90
2022-08-28T09:48:35.077Z,29.60
2022-08-28T09:53:43.218Z,29.00
2022-08-28T09:58:49.886Z,28.50
2022-08-28T10:04:01.226Z,28.30
2022-08-28T10:09:11.545Z,28.20
2022-08-28T10:14:31.172Z,28.10
2022-08-28T10:19:50.567Z,27.80
2022-08-28T10:25:11.880Z,28.10
2022-08-28T10:30:17.894Z,28.80
2022-08-28T10:35:24.822Z,29.50
2022-08-28T10:40:30.815Z,29.80
2022-08-28T10:45:34.401Z,29.60
2022-08-28T10:50:43.885Z,29.40
2022-08-28T10:55:54.285Z,29.30
2022-08-28T11:01:00.287Z,29.60
2022-08-28T11:06:07.321Z,30.00
2022-08-28T11:11:15.467Z,30.10
2022-08-28T11:16:22.994Z,29.80
2022-08-28T11:21:29.726Z,29.60
2022-08-28T11:26:55.596Z,29.30
2022-08-28T11:32:28.427Z,29.00
2022-08-28T11:37:41.159Z,29.00
2022-08-28T11:42:44.648Z,29.40
2022-08-28T11:47:53.491Z,29.60
2022-08-28T11:53:31.839Z,29.80
2022-08-28T11:58:43.156Z,29.60
2022-08-28T12:03:56.671Z,29.40
2022-08-28T12:09:04.606Z,29.10
2022-08-28T12:14:10.141Z,28.80
2022-08-28T12:19:28.260Z,28.80
2022-08-28T12:24:30.929Z,29.00
2022-08-28T12:29:43.776Z,29.00
2022-08-28T12:35:04.256Z,28.90
2022-08-28T12:40:17.763Z,29.00
2022-08-28T12:45:26.710Z,29.00
2022-08-28T12:50:33.578Z,28.80
2022-08-28T12:55:39.020Z,28.50
2022-08-28T13:00:53.725Z,28.10
2022-08-28T13:06:02.174Z,27.80
2022-08-28T13:11:05.292Z,27.50
2022-08-28T13:16:10.905Z,27.20
2022-08-28T13:21:32.863Z,27.10
2022-08-28T13:26:37.991Z,27.10
2022-08-28T13:31:42.037Z,27.10
2022-08-28T13:36:48.936Z,27.00
2022-08-28T13:41:54.748Z,26.90
2022-08-28T13:46:59.901Z,26.80
2022-08-28T13:52:05.367Z,26.80
2022-08-28T13:57:07.927Z,26.70
2022-08-28T14:02:14.687Z,26.60
2022-08-28T14:07:17.620Z,26.60
2022-08-28T14:12:20.265Z,26.70
2022-08-28T14:17:24.391Z,26.90
2022-08-28T14:22:27.493Z,27.20
2022-08-28T14:27:30.834Z,27.20
2022-08-28T14:32:35.216Z,27.20
2022-08-28T14:37:38.406Z,27.10
2022-08-28T14:42:40.934Z,27.00
2022-08-28T14:47:44.775Z,26.90
2022-08-28T14:52:47.198Z,26.80
2022-08-28T14:57:53.270Z,26.60
2022-08-28T15:02:59.663Z,26.50
2022-08-28T15:08:03.345Z,26.40
2022-08-28T15:13:07.808Z,26.40
2022-08-28T15:18:16.459Z,26.30
2022-08-28T15:23:19.232Z,26.20
2022-08-28T15:28:21.785Z,26.10
2022-08-28T15:33:26.806Z,25.90
2022-08-28T15:38:29.400Z,25.90
2022-08-28T15:43:32.151Z,25.80
2022-08-28T15:48:36.333Z,25.70
2022-08-28T15:53:38.714Z,25.70
2022-08-28T15:58:41.609Z,25.60
2022-08-28T16:03:45.792Z,25.50
2022-08-28T16:08:49.896Z,25.40
2022-08-28T16:13:52.829Z,25.30
2022-08-28T16:18:56.782Z,25.20
2022-08-28T16:23:59.277Z,25.20
2022-08-28T16:29:01.688Z,25.10
2022-08-28T16:34:05.936Z,25.00
2022-08-28T16:39:12.527Z,24.90
2022-08-28T16:44:15.373Z,24.80
2022-08-28T16:49:20.827Z,24.80
2022-08-28T16:54:23.234Z,24.70
2022-08-28T16:59:25.705Z,24.60
2022-08-28T17:04:29.777Z,24.50
2022-08-28T17:09:33.133Z,24.30
2022-08-28T17:14:37.385Z,24.20
2022-08-28T17:19:41.268Z,24.10
2022-08-28T17:24:43.736Z,24.10
2022-08-28T17:29:48.879Z,23.90
2022-08-28T17:34:53.491Z,23.80
2022-08-28T17:39:55.906Z,23.60
2022-08-28T17:44:58.406Z,23.50
2022-08-28T17:50:03.180Z,23.50
2022-08-28T17:55:06.954Z,23.40
2022-08-28T18:00:12.640Z,23.30
2022-08-28T18:05:20.384Z,23.30
2022-08-28T18:10:25.225Z,23.10
2022-08-28T18:15:30.583Z,22.90
2022-08-28T18:20:36.304Z,22.70
2022-08-28T18:25:41.056Z,22.60
2022-08-28T18:30:51.045Z,22.40
2022-08-28T18:35:56.003Z,22.20
2022-08-28T18:41:00.494Z,22.00
2022-08-28T18:46:04.705Z,21.80
2022-08-28T18:51:11.743Z,21.60
2022-08-28T18:56:14.676Z,21.50
2022-08-28T19:01:17.295Z,21.40
2022-08-28T19:06:21.737Z,21.40
2022-08-28T19:11:24.209Z,21.30
2022-08-28T19:16:26.817Z,21.30
2022-08-28T19:21:31.079Z,21.20
2022-08-28T19:26:33.784Z,21.20
2022-08-28T19:31:41.331Z,21.10
2022-08-28T19:36:55.251Z,21.00
2022-08-28T19:41:58.247Z,20.90
2022-08-28T19:47:00.797Z,20.90
2022-08-28T19:52:05.334Z,20.80
2022-08-28T19:57:08.721Z,20.70
2022-08-28T20:02:11.767Z,20.80
2022-08-28T20:07:16.104Z,20.70
2022-08-28T20:12:18.599Z,20.70
2022-08-28T20:17:21.043Z,20.70
2022-08-28T20:22:28.531Z,20.70
2022-08-28T20:27:31.482Z,20.70
2022-08-28T20:32:34.934Z,20.70
2022-08-28T20:37:45.050Z,20.70
2022-08-28T20:42:48.326Z,20.70
2022-08-28T20:47:50.810Z,20.60
2022-08-28T20:52:54.791Z,20.60
2022-08-28T20:57:57.698Z,20.60
2022-08-28T21:03:00.156Z,20.60
2022-08-28T21:08:04.381Z,20.60
2022-08-28T21:13:07.071Z,20.60
2022-08-28T21:18:09.619Z,20.60
2022-08-28T21:23:15.750Z,20.60
2022-08-28T21:28:18.282Z,20.50
2022-08-28T21:33:20.819Z,20.50
2022-08-28T21:38:24.713Z,20.40
2022-08-28T21:43:27.225Z,20.30
2022-08-28T21:48:35.052Z,20.30
2022-08-28T21:53:40.449Z,20.20
2022-08-28T21:58:43.240Z,20.20
2022-08-28T22:03:45.670Z,20.20
2022-08-28T22:08:50.801Z,20.20
2022-08-28T22:13:53.792Z,20.10
2022-08-28T22:18:56.600Z,20.10
2022-08-28T22:24:01.120Z,20.10
2022-08-28T22:29:03.805Z,20.10
2022-08-28T22:34:06.283Z,20.10
2022-08-28T22:39:10.133Z,20.10
2022-08-28T22:44:12.588Z,20.10
2022-08-28T22:49:15.028Z,20.10
2022-08-28T22:54:18.880Z,20.10
2022-08-28T22:59:21.370Z,20.10
2022-08-28T23:04:23.891Z,20.10
2022-08-28T23:09:27.873Z,20.10
2022-08-28T23:14:30.440Z,20.10
2022-08-28T23:19:32.873Z,20.10
2022-08-28T23:24:38.779Z,20.10
2022-08-28T23:29:41.525Z,20.10
2022-08-28T23:34:44.069Z,20.10
2022-08-28T23:39:47.904Z,20.20
2022-08-28T23:44:50.273Z,20.20
2022-08-28T23:49:53.427Z,20.10
2022-08-28T23:54:57.282Z,20.10
